sensor_id;sensor_type;location;lat;lon;timestamp;P1;durP1;ratioP1;P2;durP2;ratioP2
23260;SDS011;11799;47.740;-3.390;2024-01-10T00:01:33;69.80;;;23.50;;
23260;SDS011;11799;47.740;-3.390;2024-01-10T00:03:58;78.38;;;23.52;;
23260;SDS011;11799;47.740;-3.390;2024-01-10T00:06:24;73.95;;;23.02;;
23260;SDS011;11799;47.740;-3.390;2024-01-10T00:08:50;78.63;;;22.77;;
23260;SDS011;11799;47.740;-3.390;2024-01-10T00:11:15;70.78;;;22.42;;
23260;SDS011;11799;47.740;-3.390;2024-01-10T00:13:41;79.15;;;22.90;;
23260;SDS011;11799;47.740;-3.390;2024-01-10T00:16:06;78.00;;;23.15;;
23260;SDS011;11799;47.740;-3.390;2024-01-10T00:18:32;74.35;;;23.40;;
23260;SDS011;11799;47.740;-3.390;2024-01-10T00:20:58;88.00;;;25.25;;
23260;SDS011;11799;47.740;-3.390;2024-01-10T00:23:24;93.40;;;24.35;;
23260;SDS011;11799;47.740;-3.390;2024-01-10T00:25:50;91.32;;;25.05;;
23260;SDS011;11799;47.740;-3.390;2024-01-10T00:28:16;94.63;;;25.90;;
23260;SDS011;11799;47.740;-3.390;2024-01-10T00:30:43;94.63;;;26.53;;
23260;SDS011;11799;47.740;-3.390;2024-01-10T00:33:15;101.60;;;25.17;;
23260;SDS011;11799;47.740;-3.390;2024-01-10T00:35:41;93.75;;;27.20;;
23260;SDS011;11799;47.740;-3.390;2024-01-10T00:38:06;101.22;;;25.70;;
23260;SDS011;11799;47.740;-3.390;2024-01-10T00:40:32;88.38;;;25.25;;
23260;SDS011;11799;47.740;-3.390;2024-01-10T00:42:57;95.70;;;26.10;;
23260;SDS011;11799;47.740;-3.390;2024-01-10T00:45:23;99.78;;;27.08;;
23260;SDS011;11799;47.740;-3.390;2024-01-10T00:47:49;107.95;;;27.80;;
23260;SDS011;11799;47.740;-3.390;2024-01-10T00:50:15;100.43;;;26.65;;
23260;SDS011;11799;47.740;-3.390;2024-01-10T00:52:42;96.72;;;26.38;;
23260;SDS011;11799;47.740;-3.390;2024-01-10T00:55:11;75.55;;;20.60;;
23260;SDS011;11799;47.740;-3.390;2024-01-10T00:57:36;109.65;;;28.65;;
23260;SDS011;11799;47.740;-3.390;2024-01-10T01:00:12;96.68;;;26.50;;
23260;SDS011;11799;47.740;-3.390;2024-01-10T01:02:38;111.32;;;27.60;;
23260;SDS011;11799;47.740;-3.390;2024-01-10T01:05:04;109.50;;;28.95;;
23260;SDS011;11799;47.740;-3.390;2024-01-10T01:07:32;109.70;;;28.02;;
23260;SDS011;11799;47.740;-3.390;2024-01-10T01:09:57;117.55;;;27.80;;
23260;SDS011;11799;47.740;-3.390;2024-01-10T01:12:23;116.88;;;29.00;;
23260;SDS011;11799;47.740;-3.390;2024-01-10T01:14:48;95.70;;;28.02;;
23260;SDS011;11799;47.740;-3.390;2024-01-10T01:17:14;99.63;;;27.48;;
23260;SDS011;11799;47.740;-3.390;2024-01-10T01:19:39;102.63;;;27.05;;
23260;SDS011;11799;47.740;-3.390;2024-01-10T01:22:05;118.60;;;27.45;;
23260;SDS011;11799;47.740;-3.390;2024-01-10T01:24:30;116.57;;;27.25;;
23260;SDS011;11799;47.740;-3.390;2024-01-10T01:26:56;114.22;;;28.83;;
23260;SDS011;11799;47.740;-3.390;2024-01-10T01:29:21;115.60;;;27.57;;
23260;SDS011;11799;47.740;-3.390;2024-01-10T01:31:47;102.13;;;27.60;;
23260;SDS011;11799;47.740;-3.390;2024-01-10T01:34:13;116.53;;;28.90;;
23260;SDS011;11799;47.740;-3.390;2024-01-10T01:36:39;118.95;;;28.95;;
23260;SDS011;11799;47.740;-3.390;2024-01-10T01:39:04;113.20;;;28.80;;
23260;SDS011;11799;47.740;-3.390;2024-01-10T01:41:31;107.10;;;29.17;;
23260;SDS011;11799;47.740;-3.390;2024-01-10T01:43:56;114.85;;;27.92;;
23260;SDS011;11799;47.740;-3.390;2024-01-10T01:46:22;106.82;;;29.67;;
23260;SDS011;11799;47.740;-3.390;2024-01-10T01:48:48;119.57;;;28.93;;
23260;SDS011;11799;47.740;-3.390;2024-01-10T01:51:15;104.95;;;28.67;;
23260;SDS011;11799;47.740;-3.390;2024-01-10T01:53:43;113.22;;;28.17;;
23260;SDS011;11799;47.740;-3.390;2024-01-10T01:56:09;114.45;;;28.23;;
23260;SDS011;11799;47.740;-3.390;2024-01-10T01:58:37;114.15;;;28.70;;
23260;SDS011;11799;47.740;-3.390;2024-01-10T02:01:05;116.93;;;27.33;;
23260;SDS011;11799;47.740;-3.390;2024-01-10T02:03:31;118.25;;;27.73;;
23260;SDS011;11799;47.740;-3.390;2024-01-10T02:05:59;122.22;;;28.90;;
23260;SDS011;11799;47.740;-3.390;2024-01-10T02:08:24;117.22;;;27.25;;
23260;SDS011;11799;47.740;-3.390;2024-01-10T02:10:50;106.90;;;26.73;;
23260;SDS011;11799;47.740;-3.390;2024-01-10T02:13:16;114.53;;;27.95;;
23260;SDS011;11799;47.740;-3.390;2024-01-10T02:15:42;100.05;;;26.80;;
23260;SDS011;11799;47.740;-3.390;2024-01-10T02:18:08;101.17;;;27.47;;
23260;SDS011;11799;47.740;-3.390;2024-01-10T02:20:37;122.33;;;28.20;;
23260;SDS011;11799;47.740;-3.390;2024-01-10T02:23:04;118.73;;;28.00;;
23260;SDS011;11799;47.740;-3.390;2024-01-10T02:25:29;111.10;;;27.00;;
23260;SDS011;11799;47.740;-3.390;2024-01-10T02:27:55;110.10;;;28.15;;
23260;SDS011;11799;47.740;-3.390;2024-01-10T02:30:20;118.13;;;27.92;;
23260;SDS011;11799;47.740;-3.390;2024-01-10T02:32:46;103.10;;;26.63;;
23260;SDS011;11799;47.740;-3.390;2024-01-10T02:35:11;110.93;;;27.50;;
23260;SDS011;11799;47.740;-3.390;2024-01-10T02:37:37;119.35;;;28.27;;
23260;SDS011;11799;47.740;-3.390;2024-01-10T02:40:02;125.13;;;29.05;;
23260;SDS011;11799;47.740;-3.390;2024-01-10T02:42:28;119.13;;;28.27;;
23260;SDS011;11799;47.740;-3.390;2024-01-10T02:44:55;104.78;;;26.70;;
23260;SDS011;11799;47.740;-3.390;2024-01-10T02:47:21;105.00;;;26.88;;
23260;SDS011;11799;47.740;-3.390;2024-01-10T02:49:46;113.38;;;26.67;;
23260;SDS011;11799;47.740;-3.390;2024-01-10T02:52:12;108.78;;;27.80;;
23260;SDS011;11799;47.740;-3.390;2024-01-10T02:54:38;109.07;;;27.23;;
23260;SDS011;11799;47.740;-3.390;2024-01-10T02:57:03;103.57;;;26.30;;
23260;SDS011;11799;47.740;-3.390;2024-01-10T02:59:29;106.93;;;26.02;;
23260;SDS011;11799;47.740;-3.390;2024-01-10T03:01:54;97.72;;;25.65;;
23260;SDS011;11799;47.740;-3.390;2024-01-10T03:04:20;102.60;;;25.80;;
23260;SDS011;11799;47.740;-3.390;2024-01-10T03:06:45;112.90;;;26.63;;
23260;SDS011;11799;47.740;-3.390;2024-01-10T03:09:11;110.87;;;27.93;;
23260;SDS011;11799;47.740;-3.390;2024-01-10T03:11:36;107.97;;;26.15;;
23260;SDS011;11799;47.740;-3.390;2024-01-10T03:14:08;110.72;;;27.05;;
23260;SDS011;11799;47.740;-3.390;2024-01-10T03:16:35;102.03;;;25.77;;
23260;SDS011;11799;47.740;-3.390;2024-01-10T03:19:01;113.80;;;28.47;;
23260;SDS011;11799;47.740;-3.390;2024-01-10T03:21:27;110.38;;;27.35;;
23260;SDS011;11799;47.740;-3.390;2024-01-10T03:23:55;106.60;;;27.02;;
23260;SDS011;11799;47.740;-3.390;2024-01-10T03:26:21;107.13;;;26.58;;
23260;SDS011;11799;47.740;-3.390;2024-01-10T03:28:47;115.53;;;26.45;;
23260;SDS011;11799;47.740;-3.390;2024-01-10T03:31:13;112.30;;;26.10;;
23260;SDS011;11799;47.740;-3.390;2024-01-10T03:33:39;102.53;;;25.25;;
23260;SDS011;11799;47.740;-3.390;2024-01-10T03:36:06;101.20;;;24.75;;
23260;SDS011;11799;47.740;-3.390;2024-01-10T03:38:32;104.80;;;26.43;;
23260;SDS011;11799;47.740;-3.390;2024-01-10T03:40:57;107.87;;;25.83;;
23260;SDS011;11799;47.740;-3.390;2024-01-10T03:43:23;109.25;;;26.67;;
23260;SDS011;11799;47.740;-3.390;2024-01-10T03:45:48;86.32;;;25.70;;
23260;SDS011;11799;47.740;-3.390;2024-01-10T03:48:14;102.07;;;26.25;;
23260;SDS011;11799;47.740;-3.390;2024-01-10T03:50:39;109.72;;;26.98;;
23260;SDS011;11799;47.740;-3.390;2024-01-10T03:53:05;105.83;;;27.70;;
23260;SDS011;11799;47.740;-3.390;2024-01-10T03:55:31;113.28;;;26.17;;
23260;SDS011;11799;47.740;-3.390;2024-01-10T03:57:57;99.40;;;25.95;;
23260;SDS011;11799;47.740;-3.390;2024-01-10T04:00:22;96.03;;;26.07;;
23260;SDS011;11799;47.740;-3.390;2024-01-10T04:02:48;105.30;;;25.98;;
23260;SDS011;11799;47.740;-3.390;2024-01-10T04:05:13;90.30;;;25.07;;
23260;SDS011;11799;47.740;-3.390;2024-01-10T04:07:40;97.82;;;25.92;;
23260;SDS011;11799;47.740;-3.390;2024-01-10T04:10:12;94.13;;;24.27;;
23260;SDS011;11799;47.740;-3.390;2024-01-10T04:12:45;83.87;;;24.87;;
23260;SDS011;11799;47.740;-3.390;2024-01-10T04:15:11;101.47;;;25.03;;
23260;SDS011;11799;47.740;-3.390;2024-01-10T04:17:37;93.07;;;24.77;;
23260;SDS011;11799;47.740;-3.390;2024-01-10T04:20:03;92.45;;;25.35;;
23260;SDS011;11799;47.740;-3.390;2024-01-10T04:22:29;102.80;;;26.25;;
23260;SDS011;11799;47.740;-3.390;2024-01-10T04:24:57;101.90;;;26.43;;
23260;SDS011;11799;47.740;-3.390;2024-01-10T04:27:23;105.23;;;25.63;;
23260;SDS011;11799;47.740;-3.390;2024-01-10T04:29:48;111.43;;;26.43;;
23260;SDS011;11799;47.740;-3.390;2024-01-10T04:32:14;103.37;;;25.37;;
23260;SDS011;11799;47.740;-3.390;2024-01-10T04:34:39;107.43;;;26.65;;
23260;SDS011;11799;47.740;-3.390;2024-01-10T04:37:05;108.17;;;25.73;;
23260;SDS011;11799;47.740;-3.390;2024-01-10T04:39:32;114.45;;;28.20;;
23260;SDS011;11799;47.740;-3.390;2024-01-10T04:41:58;101.60;;;27.33;;
23260;SDS011;11799;47.740;-3.390;2024-01-10T04:44:24;111.13;;;25.80;;
23260;SDS011;11799;47.740;-3.390;2024-01-10T04:46:50;113.83;;;28.67;;
23260;SDS011;11799;47.740;-3.390;2024-01-10T04:49:15;114.00;;;28.73;;
23260;SDS011;11799;47.740;-3.390;2024-01-10T04:51:41;113.43;;;27.47;;
23260;SDS011;11799;47.740;-3.390;2024-01-10T04:54:06;112.53;;;28.03;;
23260;SDS011;11799;47.740;-3.390;2024-01-10T04:56:32;113.27;;;29.07;;
23260;SDS011;11799;47.740;-3.390;2024-01-10T04:58:57;116.10;;;29.30;;
23260;SDS011;11799;47.740;-3.390;2024-01-10T05:01:23;117.57;;;28.90;;
23260;SDS011;11799;47.740;-3.390;2024-01-10T05:03:49;111.30;;;27.53;;
23260;SDS011;11799;47.740;-3.390;2024-01-10T05:06:14;120.07;;;29.90;;
23260;SDS011;11799;47.740;-3.390;2024-01-10T05:08:40;120.70;;;28.88;;
23260;SDS011;11799;47.740;-3.390;2024-01-10T05:11:05;121.72;;;28.98;;
23260;SDS011;11799;47.740;-3.390;2024-01-10T05:13:31;112.70;;;28.90;;
23260;SDS011;11799;47.740;-3.390;2024-01-10T05:15:57;106.27;;;29.73;;
23260;SDS011;11799;47.740;-3.390;2024-01-10T05:18:22;107.17;;;28.00;;
23260;SDS011;11799;47.740;-3.390;2024-01-10T05:20:48;110.93;;;29.23;;
23260;SDS011;11799;47.740;-3.390;2024-01-10T05:23:13;110.70;;;28.33;;
23260;SDS011;11799;47.740;-3.390;2024-01-10T05:25:39;104.88;;;28.40;;
23260;SDS011;11799;47.740;-3.390;2024-01-10T05:28:04;120.90;;;28.08;;
23260;SDS011;11799;47.740;-3.390;2024-01-10T05:30:30;118.03;;;28.20;;
23260;SDS011;11799;47.740;-3.390;2024-01-10T05:32:57;118.82;;;29.55;;
23260;SDS011;11799;47.740;-3.390;2024-01-10T05:35:23;122.10;;;29.07;;
23260;SDS011;11799;47.740;-3.390;2024-01-10T05:37:50;119.45;;;29.73;;
23260;SDS011;11799;47.740;-3.390;2024-01-10T05:40:16;135.70;;;31.17;;
23260;SDS011;11799;47.740;-3.390;2024-01-10T05:42:43;122.90;;;29.50;;
23260;SDS011;11799;47.740;-3.390;2024-01-10T05:45:09;124.17;;;31.43;;
23260;SDS011;11799;47.740;-3.390;2024-01-10T05:47:35;127.75;;;31.23;;
23260;SDS011;11799;47.740;-3.390;2024-01-10T05:50:01;138.70;;;30.88;;
23260;SDS011;11799;47.740;-3.390;2024-01-10T05:52:27;115.22;;;30.65;;
23260;SDS011;11799;47.740;-3.390;2024-01-10T05:54:52;124.87;;;30.37;;
23260;SDS011;11799;47.740;-3.390;2024-01-10T05:57:18;122.47;;;30.67;;
23260;SDS011;11799;47.740;-3.390;2024-01-10T05:59:44;117.67;;;30.83;;
23260;SDS011;11799;47.740;-3.390;2024-01-10T06:02:09;121.47;;;30.95;;
23260;SDS011;11799;47.740;-3.390;2024-01-10T06:04:35;118.07;;;30.30;;
23260;SDS011;11799;47.740;-3.390;2024-01-10T06:07:00;132.77;;;30.70;;
23260;SDS011;11799;47.740;-3.390;2024-01-10T06:09:26;115.00;;;30.30;;
23260;SDS011;11799;47.740;-3.390;2024-01-10T06:11:52;119.27;;;31.27;;
23260;SDS011;11799;47.740;-3.390;2024-01-10T06:14:18;125.85;;;31.02;;
23260;SDS011;11799;47.740;-3.390;2024-01-10T06:16:44;139.20;;;32.35;;
23260;SDS011;11799;47.740;-3.390;2024-01-10T06:19:13;131.63;;;31.63;;
23260;SDS011;11799;47.740;-3.390;2024-01-10T06:21:38;143.63;;;31.63;;
23260;SDS011;11799;47.740;-3.390;2024-01-10T06:24:04;126.17;;;30.07;;
23260;SDS011;11799;47.740;-3.390;2024-01-10T06:26:30;122.30;;;30.70;;
23260;SDS011;11799;47.740;-3.390;2024-01-10T06:28:55;136.97;;;31.00;;
23260;SDS011;11799;47.740;-3.390;2024-01-10T06:31:21;124.93;;;32.70;;
23260;SDS011;11799;47.740;-3.390;2024-01-10T06:33:47;130.82;;;33.17;;
23260;SDS011;11799;47.740;-3.390;2024-01-10T06:36:12;141.40;;;32.40;;
23260;SDS011;11799;47.740;-3.390;2024-01-10T06:38:38;125.10;;;32.20;;
23260;SDS011;11799;47.740;-3.390;2024-01-10T06:41:10;137.07;;;32.50;;
23260;SDS011;11799;47.740;-3.390;2024-01-10T06:43:39;143.23;;;35.20;;
23260;SDS011;11799;47.740;-3.390;2024-01-10T06:46:05;140.40;;;33.20;;
23260;SDS011;11799;47.740;-3.390;2024-01-10T06:48:31;146.20;;;33.78;;
23260;SDS011;11799;47.740;-3.390;2024-01-10T06:50:57;148.48;;;33.55;;
23260;SDS011;11799;47.740;-3.390;2024-01-10T06:53:24;144.20;;;33.07;;
23260;SDS011;11799;47.740;-3.390;2024-01-10T06:55:49;142.88;;;34.67;;
23260;SDS011;11799;47.740;-3.390;2024-01-10T06:58:15;137.80;;;32.97;;
23260;SDS011;11799;47.740;-3.390;2024-01-10T07:00:41;155.40;;;35.07;;
23260;SDS011;11799;47.740;-3.390;2024-01-10T07:03:07;158.10;;;34.83;;
23260;SDS011;11799;47.740;-3.390;2024-01-10T07:05:32;140.85;;;34.85;;
23260;SDS011;11799;47.740;-3.390;2024-01-10T07:07:58;145.75;;;34.97;;
23260;SDS011;11799;47.740;-3.390;2024-01-10T07:10:24;150.27;;;34.83;;
23260;SDS011;11799;47.740;-3.390;2024-01-10T07:12:55;159.60;;;34.27;;
23260;SDS011;11799;47.740;-3.390;2024-01-10T07:15:21;154.60;;;35.33;;
23260;SDS011;11799;47.740;-3.390;2024-01-10T07:17:47;147.57;;;33.75;;
23260;SDS011;11799;47.740;-3.390;2024-01-10T07:20:13;155.85;;;32.65;;
23260;SDS011;11799;47.740;-3.390;2024-01-10T07:22:39;146.90;;;34.20;;
23260;SDS011;11799;47.740;-3.390;2024-01-10T07:25:09;160.95;;;33.47;;
23260;SDS011;11799;47.740;-3.390;2024-01-10T07:27:39;156.65;;;35.35;;
23260;SDS011;11799;47.740;-3.390;2024-01-10T07:30:06;144.50;;;35.00;;
23260;SDS011;11799;47.740;-3.390;2024-01-10T07:32:47;151.98;;;33.88;;
23260;SDS011;11799;47.740;-3.390;2024-01-10T07:35:13;140.53;;;33.67;;
23260;SDS011;11799;47.740;-3.390;2024-01-10T07:37:41;160.07;;;35.08;;
23260;SDS011;11799;47.740;-3.390;2024-01-10T07:40:08;149.10;;;34.40;;
23260;SDS011;11799;47.740;-3.390;2024-01-10T07:42:36;164.53;;;34.27;;
23260;SDS011;11799;47.740;-3.390;2024-01-10T07:45:02;152.63;;;33.58;;
23260;SDS011;11799;47.740;-3.390;2024-01-10T07:50:08;157.50;;;33.83;;
23260;SDS011;11799;47.740;-3.390;2024-01-10T07:52:35;153.37;;;32.10;;
23260;SDS011;11799;47.740;-3.390;2024-01-10T07:55:01;147.07;;;34.37;;
23260;SDS011;11799;47.740;-3.390;2024-01-10T07:57:30;164.13;;;34.45;;
23260;SDS011;11799;47.740;-3.390;2024-01-10T07:59:56;179.73;;;36.20;;
23260;SDS011;11799;47.740;-3.390;2024-01-10T08:02:21;164.60;;;33.97;;
23260;SDS011;11799;47.740;-3.390;2024-01-10T08:04:47;157.95;;;34.13;;
23260;SDS011;11799;47.740;-3.390;2024-01-10T08:07:13;147.55;;;33.22;;
23260;SDS011;11799;47.740;-3.390;2024-01-10T08:09:39;157.10;;;34.70;;
23260;SDS011;11799;47.740;-3.390;2024-01-10T08:12:04;160.47;;;33.17;;
23260;SDS011;11799;47.740;-3.390;2024-01-10T08:14:30;142.10;;;32.40;;
23260;SDS011;11799;47.740;-3.390;2024-01-10T08:16:55;150.73;;;33.53;;
23260;SDS011;11799;47.740;-3.390;2024-01-10T08:19:26;147.23;;;32.43;;
23260;SDS011;11799;47.740;-3.390;2024-01-10T08:21:52;107.20;;;22.53;;
23260;SDS011;11799;47.740;-3.390;2024-01-10T08:24:19;138.43;;;33.27;;
23260;SDS011;11799;47.740;-3.390;2024-01-10T08:26:45;142.97;;;32.80;;
23260;SDS011;11799;47.740;-3.390;2024-01-10T08:29:10;161.50;;;35.20;;
23260;SDS011;11799;47.740;-3.390;2024-01-10T08:31:36;148.40;;;32.95;;
23260;SDS011;11799;47.740;-3.390;2024-01-10T08:34:01;135.33;;;34.07;;
23260;SDS011;11799;47.740;-3.390;2024-01-10T08:36:28;141.93;;;31.67;;
23260;SDS011;11799;47.740;-3.390;2024-01-10T08:38:53;139.10;;;33.80;;
23260;SDS011;11799;47.740;-3.390;2024-01-10T08:41:19;139.10;;;32.23;;
23260;SDS011;11799;47.740;-3.390;2024-01-10T08:43:47;138.23;;;32.47;;
23260;SDS011;11799;47.740;-3.390;2024-01-10T08:46:13;135.80;;;31.25;;
23260;SDS011;11799;47.740;-3.390;2024-01-10T08:48:39;144.17;;;32.93;;
23260;SDS011;11799;47.740;-3.390;2024-01-10T08:51:04;152.67;;;34.07;;
23260;SDS011;11799;47.740;-3.390;2024-01-10T08:53:30;140.32;;;33.78;;
23260;SDS011;11799;47.740;-3.390;2024-01-10T08:55:55;155.63;;;33.47;;
23260;SDS011;11799;47.740;-3.390;2024-01-10T08:58:21;143.95;;;33.33;;
23260;SDS011;11799;47.740;-3.390;2024-01-10T09:00:47;148.53;;;32.33;;
23260;SDS011;11799;47.740;-3.390;2024-01-10T09:03:12;148.75;;;34.53;;
23260;SDS011;11799;47.740;-3.390;2024-01-10T09:05:38;145.15;;;34.67;;
23260;SDS011;11799;47.740;-3.390;2024-01-10T09:08:04;156.87;;;34.60;;
23260;SDS011;11799;47.740;-3.390;2024-01-10T09:10:29;161.30;;;32.63;;
23260;SDS011;11799;47.740;-3.390;2024-01-10T09:12:55;150.75;;;35.10;;
23260;SDS011;11799;47.740;-3.390;2024-01-10T09:15:21;161.98;;;33.60;;
23260;SDS011;11799;47.740;-3.390;2024-01-10T09:17:46;140.82;;;33.70;;
23260;SDS011;11799;47.740;-3.390;2024-01-10T09:20:12;158.25;;;33.42;;
23260;SDS011;11799;47.740;-3.390;2024-01-10T09:22:38;151.40;;;36.03;;
23260;SDS011;11799;47.740;-3.390;2024-01-10T09:25:04;155.77;;;35.38;;
23260;SDS011;11799;47.740;-3.390;2024-01-10T09:27:31;152.63;;;33.80;;
23260;SDS011;11799;47.740;-3.390;2024-01-10T09:29:59;149.75;;;33.45;;
23260;SDS011;11799;47.740;-3.390;2024-01-10T09:32:27;149.85;;;34.92;;
23260;SDS011;11799;47.740;-3.390;2024-01-10T09:34:53;154.00;;;35.30;;
23260;SDS011;11799;47.740;-3.390;2024-01-10T09:37:19;158.47;;;34.60;;
23260;SDS011;11799;47.740;-3.390;2024-01-10T09:39:45;155.25;;;35.50;;
23260;SDS011;11799;47.740;-3.390;2024-01-10T09:42:10;159.17;;;37.37;;
23260;SDS011;11799;47.740;-3.390;2024-01-10T09:44:36;158.47;;;34.87;;
23260;SDS011;11799;47.740;-3.390;2024-01-10T09:47:02;175.65;;;37.08;;
23260;SDS011;11799;47.740;-3.390;2024-01-10T09:49:27;158.43;;;36.88;;
23260;SDS011;11799;47.740;-3.390;2024-01-10T09:51:57;148.57;;;35.30;;
23260;SDS011;11799;47.740;-3.390;2024-01-10T09:54:27;169.63;;;35.97;;
23260;SDS011;11799;47.740;-3.390;2024-01-10T09:56:55;175.55;;;38.05;;
23260;SDS011;11799;47.740;-3.390;2024-01-10T09:59:22;178.77;;;37.63;;
23260;SDS011;11799;47.740;-3.390;2024-01-10T10:01:48;185.00;;;37.20;;
23260;SDS011;11799;47.740;-3.390;2024-01-10T10:04:16;169.02;;;37.15;;
23260;SDS011;11799;47.740;-3.390;2024-01-10T10:06:43;187.55;;;39.15;;
23260;SDS011;11799;47.740;-3.390;2024-01-10T10:09:08;186.23;;;36.78;;
23260;SDS011;11799;47.740;-3.390;2024-01-10T10:11:36;172.10;;;36.92;;
23260;SDS011;11799;47.740;-3.390;2024-01-10T10:14:14;185.60;;;37.83;;
23260;SDS011;11799;47.740;-3.390;2024-01-10T10:16:41;158.35;;;34.80;;
23260;SDS011;11799;47.740;-3.390;2024-01-10T10:19:07;181.02;;;36.35;;
23260;SDS011;11799;47.740;-3.390;2024-01-10T10:21:34;175.07;;;36.50;;
23260;SDS011;11799;47.740;-3.390;2024-01-10T10:24:00;154.32;;;35.17;;
23260;SDS011;11799;47.740;-3.390;2024-01-10T10:26:29;167.50;;;34.75;;
23260;SDS011;11799;47.740;-3.390;2024-01-10T10:28:57;142.38;;;33.88;;
23260;SDS011;11799;47.740;-3.390;2024-01-10T10:31:23;158.27;;;34.78;;
23260;SDS011;11799;47.740;-3.390;2024-01-10T10:33:50;154.10;;;33.88;;
23260;SDS011;11799;47.740;-3.390;2024-01-10T10:36:16;159.70;;;34.00;;
23260;SDS011;11799;47.740;-3.390;2024-01-10T10:38:42;162.25;;;37.00;;
23260;SDS011;11799;47.740;-3.390;2024-01-10T10:41:08;170.77;;;36.22;;
23260;SDS011;11799;47.740;-3.390;2024-01-10T10:43:35;165.65;;;35.97;;
23260;SDS011;11799;47.740;-3.390;2024-01-10T10:46:03;154.07;;;35.35;;
23260;SDS011;11799;47.740;-3.390;2024-01-10T10:48:34;123.00;;;27.10;;
23260;SDS011;11799;47.740;-3.390;2024-01-10T10:53:31;156.70;;;35.75;;
23260;SDS011;11799;47.740;-3.390;2024-01-10T10:55:59;179.07;;;37.78;;
23260;SDS011;11799;47.740;-3.390;2024-01-10T10:58:27;170.02;;;36.65;;
23260;SDS011;11799;47.740;-3.390;2024-01-10T11:00:53;185.70;;;36.30;;
23260;SDS011;11799;47.740;-3.390;2024-01-10T11:03:20;169.40;;;36.25;;
23260;SDS011;11799;47.740;-3.390;2024-01-10T11:05:48;181.77;;;36.13;;
23260;SDS011;11799;47.740;-3.390;2024-01-10T11:08:16;175.15;;;36.63;;
23260;SDS011;11799;47.740;-3.390;2024-01-10T11:10:45;160.15;;;35.05;;
23260;SDS011;11799;47.740;-3.390;2024-01-10T11:13:52;169.10;;;36.60;;
23260;SDS011;11799;47.740;-3.390;2024-01-10T11:25:02;147.05;;;33.90;;
23260;SDS011;11799;47.740;-3.390;2024-01-10T11:27:28;160.68;;;37.10;;
23260;SDS011;11799;47.740;-3.390;2024-01-10T11:29:55;157.73;;;35.08;;
23260;SDS011;11799;47.740;-3.390;2024-01-10T11:32:22;169.77;;;37.38;;
23260;SDS011;11799;47.740;-3.390;2024-01-10T11:34:54;173.45;;;37.63;;
23260;SDS011;11799;47.740;-3.390;2024-01-10T11:37:27;172.18;;;36.33;;
23260;SDS011;11799;47.740;-3.390;2024-01-10T11:40:03;175.77;;;37.33;;
23260;SDS011;11799;47.740;-3.390;2024-01-10T11:42:41;179.32;;;37.65;;
23260;SDS011;11799;47.740;-3.390;2024-01-10T11:45:07;173.65;;;35.88;;
23260;SDS011;11799;47.740;-3.390;2024-01-10T11:47:33;176.27;;;39.22;;
23260;SDS011;11799;47.740;-3.390;2024-01-10T11:50:01;179.93;;;38.10;;
23260;SDS011;11799;47.740;-3.390;2024-01-10T11:52:34;189.15;;;40.70;;
23260;SDS011;11799;47.740;-3.390;2024-01-10T11:55:01;184.15;;;39.25;;
23260;SDS011;11799;47.740;-3.390;2024-01-10T11:57:28;184.52;;;40.97;;
23260;SDS011;11799;47.740;-3.390;2024-01-10T11:59:57;191.65;;;38.78;;
23260;SDS011;11799;47.740;-3.390;2024-01-10T12:02:25;186.23;;;40.28;;
23260;SDS011;11799;47.740;-3.390;2024-01-10T12:04:52;188.27;;;41.40;;
23260;SDS011;11799;47.740;-3.390;2024-01-10T12:07:18;181.88;;;39.70;;
23260;SDS011;11799;47.740;-3.390;2024-01-10T12:09:45;184.88;;;40.60;;
23260;SDS011;11799;47.740;-3.390;2024-01-10T12:12:14;184.10;;;40.88;;
23260;SDS011;11799;47.740;-3.390;2024-01-10T12:14:40;188.55;;;40.15;;
23260;SDS011;11799;47.740;-3.390;2024-01-10T12:17:08;184.60;;;37.65;;
23260;SDS011;11799;47.740;-3.390;2024-01-10T12:19:34;190.75;;;38.65;;
23260;SDS011;11799;47.740;-3.390;2024-01-10T12:22:06;122.53;;;28.15;;
23260;SDS011;11799;47.740;-3.390;2024-01-10T12:24:32;177.55;;;38.08;;
23260;SDS011;11799;47.740;-3.390;2024-01-10T12:26:57;172.93;;;38.05;;
23260;SDS011;11799;47.740;-3.390;2024-01-10T12:29:23;170.55;;;36.92;;
23260;SDS011;11799;47.740;-3.390;2024-01-10T12:31:50;187.98;;;40.90;;
23260;SDS011;11799;47.740;-3.390;2024-01-10T12:34:16;189.05;;;41.35;;
23260;SDS011;11799;47.740;-3.390;2024-01-10T12:36:42;181.00;;;39.63;;
23260;SDS011;11799;47.740;-3.390;2024-01-10T12:39:08;166.98;;;37.33;;
23260;SDS011;11799;47.740;-3.390;2024-01-10T12:41:34;168.85;;;36.08;;
23260;SDS011;11799;47.740;-3.390;2024-01-10T12:44:01;167.52;;;37.38;;
23260;SDS011;11799;47.740;-3.390;2024-01-10T12:46:30;157.07;;;35.75;;
23260;SDS011;11799;47.740;-3.390;2024-01-10T12:49:00;152.30;;;36.10;;
23260;SDS011;11799;47.740;-3.390;2024-01-10T12:51:30;178.77;;;39.92;;
23260;SDS011;11799;47.740;-3.390;2024-01-10T12:54:00;168.77;;;37.58;;
23260;SDS011;11799;47.740;-3.390;2024-01-10T12:56:29;172.77;;;38.97;;
23260;SDS011;11799;47.740;-3.390;2024-01-10T12:58:55;165.40;;;38.07;;
23260;SDS011;11799;47.740;-3.390;2024-01-10T13:01:21;162.68;;;37.35;;
23260;SDS011;11799;47.740;-3.390;2024-01-10T13:03:48;162.70;;;35.80;;
23260;SDS011;11799;47.740;-3.390;2024-01-10T13:06:14;163.18;;;35.80;;
23260;SDS011;11799;47.740;-3.390;2024-01-10T13:08:41;165.10;;;36.55;;
23260;SDS011;11799;47.740;-3.390;2024-01-10T13:11:07;153.98;;;36.55;;
23260;SDS011;11799;47.740;-3.390;2024-01-10T13:13:37;146.15;;;36.80;;
23260;SDS011;11799;47.740;-3.390;2024-01-10T13:16:03;168.60;;;35.95;;
23260;SDS011;11799;47.740;-3.390;2024-01-10T13:18:29;150.98;;;35.33;;
23260;SDS011;11799;47.740;-3.390;2024-01-10T13:20:55;154.60;;;34.97;;
23260;SDS011;11799;47.740;-3.390;2024-01-10T13:23:22;155.13;;;35.63;;
23260;SDS011;11799;47.740;-3.390;2024-01-10T13:25:49;158.45;;;37.70;;
23260;SDS011;11799;47.740;-3.390;2024-01-10T13:28:20;148.02;;;36.72;;
23260;SDS011;11799;47.740;-3.390;2024-01-10T13:30:46;157.93;;;36.75;;
23260;SDS011;11799;47.740;-3.390;2024-01-10T13:33:11;173.52;;;37.78;;
23260;SDS011;11799;47.740;-3.390;2024-01-10T13:35:38;160.45;;;36.47;;
23260;SDS011;11799;47.740;-3.390;2024-01-10T13:38:05;162.15;;;35.70;;
23260;SDS011;11799;47.740;-3.390;2024-01-10T13:40:30;162.68;;;36.90;;
23260;SDS011;11799;47.740;-3.390;2024-01-10T13:42:59;143.50;;;33.63;;
23260;SDS011;11799;47.740;-3.390;2024-01-10T13:45:27;136.20;;;32.65;;
23260;SDS011;11799;47.740;-3.390;2024-01-10T13:47:53;139.80;;;34.70;;
23260;SDS011;11799;47.740;-3.390;2024-01-10T13:50:19;149.23;;;35.17;;
23260;SDS011;11799;47.740;-3.390;2024-01-10T13:52:44;134.75;;;33.67;;
23260;SDS011;11799;47.740;-3.390;2024-01-10T13:55:10;144.27;;;33.95;;
23260;SDS011;11799;47.740;-3.390;2024-01-10T13:57:36;139.48;;;32.58;;
23260;SDS011;11799;47.740;-3.390;2024-01-10T14:00:02;142.10;;;32.08;;
23260;SDS011;11799;47.740;-3.390;2024-01-10T14:02:37;134.40;;;31.80;;
23260;SDS011;11799;47.740;-3.390;2024-01-10T14:05:02;120.40;;;29.20;;
23260;SDS011;11799;47.740;-3.390;2024-01-10T14:07:31;115.80;;;29.25;;
23260;SDS011;11799;47.740;-3.390;2024-01-10T14:09:58;138.15;;;30.42;;